Time;durP1;ratioP1;P1;durP2;ratioP2;P2;SDS_P1;SDS_P2;PMS_P1;PMS_P2;Temp;Humidity;BMP_temperature;BMP_pressure;BME280_temperature;BME280_humidity;BME280_pressure;Samples;Min_cycle;Max_cycle;Signal;HPM_P1;HPM_P2
2021/04/19 00:01:13;;;;;;;4.13;3.72;;;;;;;;;;4973691;28;20424;-73
2021/04/19 00:03:39;;;;;;;6.22;4.10;;;;;;;;;;4974274;28;20395;-73
2021/04/19 00:06:05;;;;;;;5.35;3.97;;;6.20;99.90;;;;;;4991109;28;20405;-73
2021/04/19 00:08:30;;;;;;;4.35;3.65;;;;;;;;;;4992035;28;20739;-73
2021/04/19 00:10:57;;;;;;;5.55;4.13;;;6.10;99.90;;;;;;4991282;28;20541;-75
2021/04/19 00:13:24;;;;;;;4.63;3.53;;;5.50;99.90;;;;;;4992001;28;20401;-73
2021/04/19 00:15:50;;;;;;;4.50;4.05;;;6.30;99.90;;;;;;4973856;28;20397;-73
2021/04/19 00:18:16;;;;;;;6.25;4.03;;;;;;;;;;4990834;28;20407;-72
2021/04/19 00:20:42;;;;;;;3.78;3.38;;;;;;;;;;4991695;28;20414;-73
2021/04/19 00:23:09;;;;;;;4.15;3.75;;;;;;;;;;4990579;28;20389;-73
2021/04/19 00:25:34;;;;;;;5.80;4.20;;;6.20;99.90;;;;;;4991368;28;20752;-73
2021/04/19 00:28:00;;;;;;;3.73;3.40;;;;;;;;;;4990647;28;20390;-73
2021/04/19 00:30:26;;;;;;;4.57;3.80;;;;;;;;;;4991030;28;20474;-73
2021/04/19 00:32:53;;;;;;;4.43;4.03;;;;;;;;;;4991338;28;20708;-72
2021/04/19 00:35:19;;;;;;;5.55;3.95;;;;;;;;;;4990526;28;20385;-73
2021/04/19 00:37:45;;;;;;;4.60;3.80;;;;;;;;;;4991250;28;20375;-73
2021/04/19 00:40:15;;;;;;;3.78;3.20;;;;;;;;;;4990435;28;20926;-73
2021/04/19 00:42:42;;;;;;;4.97;3.78;;;;;;;;;;4973836;28;20393;-73
2021/04/19 00:45:09;;;;;;;5.32;3.95;;;;;;;;;;4990414;28;20505;-73
2021/04/19 00:47:35;;;;;;;6.63;3.65;;;;;;;;;;4991213;28;20453;-73
2021/04/19 00:50:01;;;;;;;5.05;3.72;;;;;;;;;;4972662;28;20385;-73
2021/04/19 00:52:28;;;;;;;4.10;3.30;;;;;;;;;;4991123;28;20385;-73
2021/04/19 00:54:54;;;;;;;6.45;4.00;;;;;;;;;;4990806;28;20385;-73
2021/04/19 00:57:21;;;;;;;3.90;3.50;;;;;;;;;;4990223;28;20390;-73
2021/04/19 00:59:46;;;;;;;5.25;4.03;;;6.00;99.90;;;;;;4990993;28;20378;-73
2021/04/19 01:02:12;;;;;;;4.23;3.70;;;;;;;;;;4990017;28;20414;-73
2021/04/19 01:04:38;;;;;;;4.70;4.20;;;6.00;99.90;;;;;;4973106;28;20851;-73
2021/04/19 01:07:04;;;;;;;4.20;3.80;;;;;;;;;;4990112;28;20390;-73
2021/04/19 01:09:30;;;;;;;5.03;3.47;;;5.90;99.90;;;;;;4990331;28;20393;-73
2021/04/19 01:11:55;;;;;;;4.03;3.63;;;5.50;99.90;;;;;;4973498;28;20394;-73
2021/04/19 01:14:21;;;;;;;4.15;3.58;;;;;;;;;;4989941;28;20391;-73
2021/04/19 01:16:47;;;;;;;4.65;4.00;;;;;;;;;;4990671;28;21005;-73
2021/04/19 01:19:13;;;;;;;6.57;3.72;;;5.50;99.90;;;;;;4972467;28;20481;-73
2021/04/19 01:21:39;;;;;;;6.30;3.87;;;5.70;99.90;;;;;;4990448;28;20532;-72
2021/04/19 01:24:05;;;;;;;5.70;3.83;;;;;;;;;;4989644;28;20397;-73
2021/04/19 01:26:31;;;;;;;4.22;3.70;;;;;;;;;;4990694;28;20375;-73
2021/04/19 01:28:57;;;;;;;4.80;4.03;;;;;;;;;;4990475;28;20802;-72
2021/04/19 01:31:23;;;;;;;3.90;3.50;;;5.60;99.90;;;;;;4989659;28;20378;-73
2021/04/19 01:33:49;;;;;;;6.32;4.00;;;;;;;;;;4990657;28;20394;-73
2021/04/19 01:36:15;;;;;;;3.83;3.43;;;;;;;;;;4989730;28;20385;-73
2021/04/19 01:38:41;;;;;;;4.07;3.67;;;;;;;;;;4973010;28;20409;-73
2021/04/19 01:41:06;;;;;;;7.22;4.03;;;5.60;99.90;;;;;;4989683;28;20573;-73
2021/04/19 01:43:32;;;;;;;5.77;4.80;;;;;;;;;;4990518;28;20839;-73
2021/04/19 01:45:58;;;;;;;6.28;3.72;;;5.70;99.90;;;;;;4973173;28;20387;-73
2021/04/19 01:48:25;;;;;;;5.22;3.83;;;5.60;99.90;;;;;;4989772;28;20494;-73
2021/04/19 01:50:52;;;;;;;4.03;3.60;;;5.70;99.90;;;;;;4990366;28;20520;-73
2021/04/19 01:53:18;;;;;;;5.38;3.70;;;;;;;;;;4972286;28;20529;-73
2021/04/19 01:55:45;;;;;;;4.10;3.67;;;;;;;;;;4990463;28;20386;-73
2021/04/19 01:58:13;;;;;;;4.57;3.30;;;;;;;;;;4989819;28;20920;-73
2021/04/19 02:00:42;;;;;;;5.70;3.80;;;4.20;99.90;;;;;;4972763;28;20425;-73
2021/04/19 02:03:14;;;;;;;5.15;3.70;;;4.90;99.90;;;;;;4970227;28;20455;-73
2021/04/19 02:06:06;;;;;;;7.22;3.88;;;;;;;;;;4971037;28;20389;-73
2021/04/19 02:08:48;;;;;;;4.88;4.30;;;5.00;99.90;;;;;;4968722;28;20411;-73
2021/04/19 02:11:56;;;;;;;3.97;3.58;;;5.00;99.90;;;;;;4970210;28;20438;-74
2021/04/19 02:14:32;;;;;;;5.78;3.67;;;;;;;;;;4955751;28;20454;-73
2021/04/19 02:17:01;;;;;;;4.70;3.80;;;;;;;;;;4971152;28;20376;-73
2021/04/19 02:19:34;;;;;;;4.93;3.75;;;;;;;;;;4970714;28;20399;-73
2021/04/19 02:22:06;;;;;;;4.50;4.00;;;;;;;;;;4971126;28;20879;-73
2021/04/19 02:24:35;;;;;;;6.20;3.80;;;;;;;;;;4974813;28;20829;-73
2021/04/19 02:27:05;;;;;;;3.83;3.40;;;;;;;;;;4974237;28;20388;-75
2021/04/19 02:29:36;;;;;;;5.20;3.70;;;4.70;99.90;;;;;;4974166;28;20381;-73
2021/04/19 02:32:04;;;;;;;4.10;3.50;;;;;;;;;;4974358;28;20406;-75
2021/04/19 02:34:33;;;;;;;5.55;4.10;;;4.70;99.90;;;;;;4974344;28;20404;-73
2021/04/19 02:37:02;;;;;;;4.85;3.47;;;4.30;99.90;;;;;;4974331;28;20388;-73
2021/04/19 02:39:32;;;;;;;4.90;3.73;;;4.50;99.90;;;;;;4973094;28;20436;-72
2021/04/19 02:41:58;;;;;;;4.30;3.90;;;;;;;;;;4973949;28;20442;-73
2021/04/19 02:44:26;;;;;;;5.55;4.10;;;;;;;;;;4973153;28;20396;-73
2021/04/19 02:46:53;;;;;;;5.13;3.85;;;;;;;;;;4973998;28;20434;-73
2021/04/19 02:49:25;;;;;;;6.97;3.55;;;4.30;99.90;;;;;;4955821;28;20397;-73
2021/04/19 02:51:51;;;;;;;5.88;3.65;;;;;;;;;;4973477;28;20423;-73
2021/04/19 02:54:24;;;;;;;5.60;4.13;;;;;;;;;;4973384;28;20396;-73
2021/04/19 02:56:52;;;;;;;4.80;3.70;;;;;;;;;;4973615;28;20384;-73
2021/04/19 02:59:20;;;;;;;4.33;3.93;;;4.10;99.90;;;;;;4973572;28;20405;-73
2021/04/19 03:01:47;;;;;;;5.35;3.60;;;;;;;;;;4982020;28;20879;-73
2021/04/19 03:04:16;;;;;;;6.63;3.92;;;4.40;99.90;;;;;;4992186;28;20874;-73
2021/04/19 03:06:47;;;;;;;3.90;3.50;;;4.60;99.90;;;;;;4992921;28;20436;-73
2021/04/19 03:09:15;;;;;;;4.93;3.92;;;;;;;;;;4992088;28;20497;-73
2021/04/19 03:12:08;;;;;;;4.82;3.88;;;;;;;;;;4992915;28;20382;-73
2021/04/19 03:14:39;;;;;;;6.18;3.90;;;;;;;;;;4989597;28;20398;-73
2021/04/19 03:17:11;;;;;;;5.28;3.90;;;;;;;;;;4992241;28;20382;-76
2021/04/19 03:19:39;;;;;;;3.53;3.20;;;;;;;;;;4992918;28;20440;-73
2021/04/19 03:22:05;;;;;;;3.50;3.20;;;;;;;;;;4992226;28;20421;-75
2021/04/19 03:24:32;;;;;;;5.43;3.60;;;4.30;99.90;;;;;;4992263;28;20374;-73
2021/04/19 03:27:00;;;;;;;4.70;4.00;;;4.30;99.90;;;;;;4992922;28;20429;-73
2021/04/19 03:29:27;;;;;;;4.30;3.90;;;;;;;;;;4991840;28;20466;-73
2021/04/19 03:31:54;;;;;;;4.38;3.80;;;;;;;;;;4992473;28;20392;-73
2021/04/19 03:34:21;;;;;;;8.00;3.90;;;;;;;;;;4991230;28;20462;-73
2021/04/19 03:36:56;;;;;;;3.88;3.50;;;4.40;99.90;;;;;;4992293;28;20406;-73
2021/04/19 03:39:24;;;;;;;4.60;3.35;;;;;;;;;;4991602;28;20412;-73
2021/04/19 03:41:51;;;;;;;4.53;4.10;;;;;;;;;;4992262;28;20414;-73
2021/04/19 03:44:21;;;;;;;3.80;3.10;;;;;;;;;;4991109;28;20775;-73
2021/04/19 03:46:48;;;;;;;5.07;4.15;;;;;;;;;;4992396;28;20422;-73
2021/04/19 03:49:43;;;;;;;4.13;3.60;;;;;;;;;;4991112;28;20419;-73
2021/04/19 03:52:14;;;;;;;3.58;3.20;;;;;;;;;;4974971;28;20433;-75
2021/04/19 03:54:41;;;;;;;6.25;3.67;;;;;;;;;;4992152;28;20378;-73
2021/04/19 03:57:08;;;;;;;6.35;3.45;;;;;;;;;;4991816;28;20418;-75
2021/04/19 03:59:38;;;;;;;4.28;3.70;;;;;;;;;;4991650;28;20379;-73
2021/04/19 04:02:05;;;;;;;4.60;3.72;;;4.10;99.90;;;;;;4992237;28;20843;-74
2021/04/19 04:04:32;;;;;;;4.63;3.38;;;;;;;;;;4991664;28;20816;-73
2021/04/19 04:06:58;;;;;;;4.35;3.70;;;;;;;;;;4992111;28;20916;-73
2021/04/19 04:09:24;;;;;;;6.25;3.70;;;3.70;99.90;;;;;;4991518;28;20882;-73
2021/04/19 04:11:51;;;;;;;4.67;4.17;;;;;;;;;;4992365;28;20418;-73
2021/04/19 04:14:17;;;;;;;6.07;4.03;;;;;;;;;;4991247;28;20481;-72
2021/04/19 04:16:43;;;;;;;5.78;4.35;;;;;;;;;;4992138;28;20445;-72
2021/04/19 04:19:09;;;;;;;6.70;4.20;;;;;;;;;;4974441;28;20724;-75
2021/04/19 04:21:36;;;;;;;4.90;4.00;;;;;;;;;;4991608;28;20406;-73
2021/04/19 04:24:02;;;;;;;5.20;4.32;;;;;;;;;;4974677;28;20777;-72
2021/04/19 04:26:28;;;;;;;8.23;4.78;;;;;;;;;;4990967;28;20412;-72
2021/04/19 04:28:55;;;;;;;6.82;4.00;;;;;;;;;;4991930;28;20386;-72
2021/04/19 04:31:21;;;;;;;5.43;3.90;;;;;;;;;;4973721;28;20378;-73
2021/04/19 04:33:47;;;;;;;4.82;3.92;;;;;;;;;;4974293;28;20749;-73
2021/04/19 04:36:13;;;;;;;4.40;4.00;;;;;;;;;;4973588;28;20998;-75
2021/04/19 04:38:39;;;;;;;6.00;4.23;;;;;;;;;;4974107;28;20455;-73
2021/04/19 04:41:05;;;;;;;5.20;4.10;;;;;;;;;;4991440;28;20480;-72
2021/04/19 04:43:35;;;;;;;6.00;4.50;;;;;;;;;;4990323;28;21143;-72
2021/04/19 04:46:33;;;;;;;6.20;4.22;;;3.40;99.90;;;;;;4991216;28;20391;-72
2021/04/19 04:49:20;;;;;;;5.05;4.15;;;3.60;99.90;;;;;;4990958;28;20395;-72
2021/04/19 04:51:48;;;;;;;5.10;3.90;;;;;;;;;;4991826;28;20796;-73
2021/04/19 04:54:16;;;;;;;5.18;3.50;;;3.70;99.90;;;;;;4990909;28;20370;-75
2021/04/19 04:56:48;;;;;;;6.05;4.00;;;3.40;99.90;;;;;;4991487;28;20409;-73
2021/04/19 04:59:15;;;;;;;6.68;4.60;;;;;;;;;;4990420;28;20417;-75
2021/04/19 05:01:42;;;;;;;6.10;4.13;;;;;;;;;;4989099;28;20425;-72
2021/04/19 05:04:09;;;;;;;5.03;4.50;;;;;;;;;;5006150;28;20398;-72
2021/04/19 05:06:35;;;;;;;5.30;4.50;;;;;;;;;;4990918;28;20378;-72
2021/04/19 05:09:02;;;;;;;5.20;4.25;;;;;;;;;;4991108;28;20708;-72
2021/04/19 05:11:28;;;;;;;7.20;5.00;;;;;;;;;;4990196;28;20387;-72
2021/04/19 05:14:01;;;;;;;6.80;5.05;;;;;;;;;;4990779;28;20385;-73
2021/04/19 05:16:28;;;;;;;7.40;4.60;;;;;;;;;;4972524;28;20934;-73
2021/04/19 05:18:55;;;;;;;4.90;4.40;;;;;;;;;;4990839;28;20389;-72
2021/04/19 05:21:22;;;;;;;5.53;4.78;;;;;;;;;;4990617;28;20509;-73
2021/04/19 05:23:48;;;;;;;5.97;4.43;;;;;;;;;;4991346;28;20377;-72
2021/04/19 05:26:14;;;;;;;5.47;3.97;;;;;;;;;;4990826;28;20437;-76
2021/04/19 05:28:41;;;;;;;6.13;4.50;;;;;;;;;;4973420;28;20387;-72
2021/04/19 05:31:09;;;;;;;6.47;3.97;;;3.80;99.90;;;;;;4991376;28;20378;-72
2021/04/19 05:33:35;;;;;;;5.53;4.22;;;;;;;;;;4989350;28;21011;-72
2021/04/19 05:36:07;;;;;;;5.53;4.40;;;;;;;;;;4991049;28;20373;-72
2021/04/19 05:38:33;;;;;;;5.88;4.10;;;;;;;;;;4990106;28;20435;-72
2021/04/19 05:40:59;;;;;;;5.75;4.60;;;;;;;;;;4973550;28;20461;-72
2021/04/19 05:43:26;;;;;;;6.13;4.63;;;;;;;;;;4990044;28;20527;-72
2021/04/19 05:45:54;;;;;;;6.80;4.30;;;4.20;99.90;;;;;;4973649;28;20386;-72
2021/04/19 05:48:20;;;;;;;4.95;4.05;;;;;;;;;;4985108;28;20406;-72
2021/04/19 05:50:48;;;;;;;5.80;4.78;;;;;;;;;;4991578;28;20432;-72
2021/04/19 05:53:15;;;;;;;5.18;4.07;;;;;;;;;;4989922;28;20374;-76
2021/04/19 05:55:43;;;;;;;4.55;4.15;;;;;;;;;;4989860;28;20379;-69
2021/04/19 05:58:14;;;;;;;6.18;4.43;;;;;;;;;;4993838;28;20382;-69
2021/04/19 06:00:52;;;;;;;4.25;3.83;;;4.60;99.90;;;;;;4993551;28;20418;-69
2021/04/19 06:03:39;;;;;;;7.72;4.40;;;4.70;99.90;;;;;;5001013;28;20541;-73
2021/04/19 06:06:36;;;;;;;4.90;4.40;;;4.50;99.90;;;;;;5003217;28;20465;-71
2021/04/19 06:09:16;;;;;;;6.88;4.80;;;;;;;;;;5002331;28;20927;-69
2021/04/19 06:11:46;;;;;;;6.38;3.92;;;;;;;;;;5001890;28;20394;-70
2021/04/19 06:14:15;;;;;;;5.28;4.75;;;;;;;;;;4999671;28;20374;-73
2021/04/19 06:16:42;;;;;;;6.00;4.57;;;;;;;;;;5001429;28;20376;-73
2021/04/19 06:19:10;;;;;;;6.80;4.78;;;;;;;;;;4996061;28;20396;-72
2021/04/19 06:21:37;;;;;;;5.53;4.40;;;;;;;;;;5003535;28;20408;-73
2021/04/19 06:24:03;;;;;;;6.50;4.65;;;;;;;;;;4996060;28;20763;-73
2021/04/19 06:26:30;;;;;;;5.28;4.75;;;;;;;;;;4992825;28;20709;-73
2021/04/19 06:28:56;;;;;;;5.15;4.32;;;;;;;;;;4993861;28;20383;-73
2021/04/19 06:31:24;;;;;;;8.18;5.18;;;;;;;;;;4992933;28;20394;-73
2021/04/19 06:34:06;;;;;;;5.65;4.13;;;6.00;99.90;;;;;;4993869;28;20379;-73
2021/04/19 06:36:37;;;;;;;6.78;4.90;;;5.70;99.90;;;;;;4993162;28;20866;-73
2021/04/19 06:39:06;;;;;;;6.57;4.60;;;;;;;;;;4993480;28;20530;-73
2021/04/19 06:41:33;;;;;;;5.65;4.78;;;;;;;;;;4975301;28;20493;-73
2021/04/19 06:43:59;;;;;;;6.78;4.45;;;;;;;;;;4993503;28;20410;-72
2021/04/19 06:46:36;;;;;;;5.18;4.40;;;;;;;;;;4992156;28;20374;-73
2021/04/19 06:49:03;;;;;;;7.82;4.43;;;6.70;99.90;;;;;;4956445;28;20412;-73
2021/04/19 06:51:30;;;;;;;7.45;4.03;;;6.20;99.90;;;;;;4973002;28;20392;-73
2021/04/19 06:53:56;;;;;;;5.90;4.30;;;;;;;;;;4974339;28;20403;-73
2021/04/19 06:56:24;;;;;;;5.57;3.80;;;;;;;;;;4973002;28;20384;-74
2021/04/19 06:58:55;;;;;;;7.97;5.15;;;6.80;99.90;;;;;;4974014;28;20398;-73
2021/04/19 07:01:24;;;;;;;5.40;4.70;;;7.00;99.90;;;;;;4978182;28;20429;-71
2021/04/19 07:03:55;;;;;;;6.18;4.40;;;6.90;99.90;;;;;;4993231;28;20931;-71
2021/04/19 07:06:21;;;;;;;5.20;4.70;;;;;;;;;;4992178;28;20401;-75
2021/04/19 07:08:48;;;;;;;7.37;5.13;;;;;;;;;;4994600;28;20474;-72
2021/04/19 07:11:17;;;;;;;7.78;4.85;;;;;;;;;;4997296;28;20396;-72
2021/04/19 07:13:43;;;;;;;8.50;5.20;;;;;;;;;;4977402;28;20391;-72
2021/04/19 07:16:09;;;;;;;7.55;5.30;;;;;;;;;;4993425;28;20371;-72
2021/04/19 07:18:35;;;;;;;6.15;5.05;;;7.60;99.90;;;;;;4992263;28;20382;-72
2021/04/19 07:21:01;;;;;;;5.60;4.40;;;7.00;99.90;;;;;;4992223;28;20418;-73
2021/04/19 07:23:27;;;;;;;6.25;4.82;;;;;;;;;;5001357;28;20428;-72
2021/04/19 07:25:53;;;;;;;7.45;5.25;;;;;;;;;;5001025;28;20375;-73
2021/04/19 07:28:19;;;;;;;5.27;4.40;;;;;;;;;;4982175;28;20420;-76
2021/04/19 07:30:45;;;;;;;5.70;4.35;;;7.30;99.90;;;;;;5001662;28;20380;-72
2021/04/19 07:33:26;;;;;;;7.32;4.68;;;7.70;99.90;;;;;;5001094;28;20871;-73
2021/04/19 07:35:52;;;;;;;7.40;5.10;;;7.60;99.90;;;;;;4999448;28;20445;-73
2021/04/19 07:38:30;;;;;;;5.68;5.18;;;;;;;;;;4996649;28;20390;-75
2021/04/19 07:40:55;;;;;;;8.25;5.28;;;7.30;99.90;;;;;;4990747;28;20869;-73
2021/04/19 07:43:24;;;;;;;9.10;5.30;;;;;;;;;;4997191;28;20406;-76
2021/04/19 07:46:15;;;;;;;8.07;5.00;;;7.40;99.90;;;;;;4999267;28;20394;-72
2021/04/19 07:48:44;;;;;;;7.72;4.85;;;;;;;;;;4993145;28;20394;-72
2021/04/19 07:51:28;;;;;;;6.85;5.00;;;;;;;;;;4991725;28;20391;-73
2021/04/19 07:54:15;;;;;;;5.35;4.57;;;7.50;99.90;;;;;;5007476;28;20446;-74
2021/04/19 07:57:08;;;;;;;7.30;5.20;;;7.70;99.90;;;;;;4974213;28;21087;-73
2021/04/19 07:59:38;;;;;;;8.95;5.65;;;7.40;99.90;;;;;;4966225;28;20795;-74
2021/04/19 08:02:09;;;;;;;6.63;5.25;;;;;;;;;;4991815;28;20418;-75
2021/04/19 08:04:44;;;;;;;7.05;5.05;;;;;;;;;;4991308;28;20466;-75
2021/04/19 08:07:17;;;;;;;6.00;5.20;;;;;;;;;;4974746;28;20386;-74
2021/04/19 08:09:52;;;;;;;6.63;5.23;;;;;;;;;;4990615;28;20798;-74
2021/04/19 08:12:19;;;;;;;7.43;5.30;;;;;;;;;;4992133;28;20388;-74
2021/04/19 08:14:54;;;;;;;6.78;5.00;;;;;;;;;;4991122;28;20389;-72
2021/04/19 08:17:21;;;;;;;6.00;4.30;;;;;;;;;;4991723;28;20381;-77
2021/04/19 08:19:46;;;;;;;8.10;4.90;;;7.70;99.90;;;;;;4990544;28;20445;-72
2021/04/19 08:22:15;;;;;;;6.47;5.00;;;7.50;99.90;;;;;;4991830;28;20414;-72
2021/04/19 08:24:41;;;;;;;5.80;5.15;;;;;;;;;;4991158;28;20389;-72
2021/04/19 08:27:07;;;;;;;8.07;6.13;;;7.90;99.90;;;;;;4991696;28;20807;-72
2021/04/19 08:29:40;;;;;;;8.30;6.25;;;8.00;99.90;;;;;;4989927;28;20429;-72
2021/04/19 08:32:08;;;;;;;6.57;5.68;;;;;;;;;;4991728;28;20587;-72
2021/04/19 08:34:37;;;;;;;7.53;5.63;;;;;;;;;;4990850;28;20374;-73
2021/04/19 08:37:04;;;;;;;7.15;5.80;;;8.10;99.90;;;;;;4991569;28;20453;-72
2021/04/19 08:39:33;;;;;;;8.05;5.82;;;;;;;;;;4990623;28;20457;-73
2021/04/19 08:42:00;;;;;;;8.38;5.75;;;;;;;;;;4991405;28;20417;-73
2021/04/19 08:44:26;;;;;;;6.90;5.72;;;;;;;;;;4990820;28;20414;-74
2021/04/19 08:46:52;;;;;;;7.90;5.82;;;;;;;;;;4991464;28;20374;-72
2021/04/19 08:49:18;;;;;;;7.13;6.03;;;;;;;;;;4973175;28;20418;-72
2021/04/19 08:51:44;;;;;;;7.03;5.28;;;8.10;99.90;;;;;;4990143;28;20458;-73
2021/04/19 08:54:10;;;;;;;6.90;5.38;;;;;;;;;;4990958;28;20521;-72
2021/04/19 08:56:36;;;;;;;7.43;5.25;;;8.00;99.90;;;;;;4990525;28;20875;-72
2021/04/19 08:59:02;;;;;;;6.83;5.80;;;7.80;99.90;;;;;;4991002;28;20374;-73
2021/04/19 09:01:29;;;;;;;6.88;5.50;;;;;;;;;;4990147;28;20831;-73
2021/04/19 09:04:06;;;;;;;8.85;5.82;;;;;;;;;;4991287;28;20689;-72
2021/04/19 09:06:42;;;;;;;7.10;5.50;;;;;;;;;;4990158;28;20859;-72
2021/04/19 09:09:08;;;;;;;8.05;5.47;;;;;;;;;;4990453;28;20484;-73
2021/04/19 09:11:34;;;;;;;8.07;5.47;;;;;;;;;;4990226;28;20378;-72
2021/04/19 09:14:04;;;;;;;8.02;5.88;;;;;;;;;;4991223;28;20761;-72
2021/04/19 09:16:38;;;;;;;6.70;5.23;;;;;;;;;;4972981;28;20939;-72
2021/04/19 09:19:04;;;;;;;6.45;4.90;;;;;;;;;;4990916;28;20720;-72
2021/04/19 09:21:34;;;;;;;6.60;4.72;;;8.80;99.90;;;;;;4972746;28;20411;-72
2021/04/19 09:24:01;;;;;;;6.03;5.07;;;;;;;;;;4991275;28;20374;-72
2021/04/19 09:26:52;;;;;;;7.07;6.15;;;8.10;99.90;;;;;;4990223;28;20695;-74
2021/04/19 09:29:24;;;;;;;8.30;5.20;;;;;;;;;;4990386;28;20379;-72
2021/04/19 09:31:56;;;;;;;6.50;5.60;;;8.20;99.90;;;;;;4992649;28;20385;-72
2021/04/19 09:34:41;;;;;;;5.63;5.10;;;;;;;;;;4994996;28;20386;-72
2021/04/19 09:37:10;;;;;;;6.35;5.70;;;;;;;;;;4977249;28;20700;-72
2021/04/19 09:39:46;;;;;;;6.97;5.55;;;8.00;99.90;;;;;;4993776;28;20394;-73
2021/04/19 09:42:13;;;;;;;6.28;5.68;;;8.20;99.90;;;;;;4994280;28;20465;-73
2021/04/19 09:44:53;;;;;;;6.85;5.35;;;8.40;99.90;;;;;;4993988;28;20886;-72
2021/04/19 09:47:52;;;;;;;6.53;5.40;;;8.20;99.90;;;;;;4977249;28;20716;-73
2021/04/19 09:50:23;;;;;;;6.72;5.10;;;8.50;99.90;;;;;;4960812;28;20457;-72
2021/04/19 09:52:53;;;;;;;8.45;5.70;;;;;;;;;;4976297;28;20386;-72
2021/04/19 09:55:21;;;;;;;6.95;5.50;;;8.60;99.90;;;;;;4994734;28;20379;-72
2021/04/19 09:57:47;;;;;;;5.90;5.00;;;;;;;;;;4993768;28;20410;-72
2021/04/19 10:00:14;;;;;;;5.50;4.70;;;;;;;;;;4977087;28;20890;-72
2021/04/19 10:02:41;;;;;;;5.97;5.20;;;8.60;99.90;;;;;;4993078;28;20925;-73
2021/04/19 10:05:09;;;;;;;5.90;4.57;;;;;;;;;;4994246;28;20533;-73
2021/04/19 10:07:39;;;;;;;5.53;4.53;;;8.80;99.90;;;;;;4993534;28;20406;-72
2021/04/19 10:10:06;;;;;;;5.97;4.60;;;;;;;;;;4993386;28;20445;-72
2021/04/19 10:12:35;;;;;;;6.80;5.10;;;9.30;99.90;;;;;;4975703;28;20870;-73
2021/04/19 10:15:01;;;;;;;7.60;4.43;;;;;;;;;;4994321;28;20467;-72
2021/04/19 10:17:32;;;;;;;5.10;3.85;;;;;;;;;;4993709;28;20386;-76
2021/04/19 10:20:21;;;;;;;7.28;5.13;;;9.30;99.90;;;;;;4993942;28;20394;-73
2021/04/19 10:23:04;;;;;;;9.45;5.30;;;;;;;;;;4993394;28;20399;-73
2021/04/19 10:25:30;;;;;;;6.70;5.00;;;;;;;;;;4993625;28;20441;-76
2021/04/19 10:27:56;;;;;;;7.40;4.90;;;9.10;99.90;;;;;;4993811;28;20823;-73
2021/04/19 10:30:22;;;;;;;6.55;5.50;;;;;;;;;;4975309;28;20387;-72
2021/04/19 10:32:48;;;;;;;7.13;5.20;;;;;;;;;;5007951;28;20410;-72
2021/04/19 10:35:30;;;;;;;6.43;4.90;;;;;;;;;;5008931;28;20441;-73
2021/04/19 10:37:56;;;;;;;5.93;4.47;;;;;;;;;;4993504;28;20883;-72
2021/04/19 10:40:22;;;;;;;6.65;5.38;;;9.40;99.90;;;;;;5008473;28;20402;-72
2021/04/19 10:42:48;;;;;;;6.30;4.80;;;;;;;;;;4992241;28;20418;-75
2021/04/19 10:45:15;;;;;;;7.50;5.47;;;9.50;99.90;;;;;;4976560;28;20390;-74
2021/04/19 10:47:41;;;;;;;5.73;5.00;;;;;;;;;;4993453;28;20900;-74
2021/04/19 10:50:08;;;;;;;6.55;4.70;;;;;;;;;;4992693;28;20433;-73
2021/04/19 10:52:34;;;;;;;5.63;4.53;;;;;;;;;;4992544;28;20774;-74
2021/04/19 10:55:08;;;;;;;7.22;4.97;;;;;;;;;;4993933;28;20723;-74
2021/04/19 10:57:35;;;;;;;7.85;5.60;;;9.20;99.90;;;;;;4992730;28;20739;-75
2021/04/19 11:00:01;;;;;;;7.25;6.05;;;;;;;;;;4994259;28;20391;-73
2021/04/19 11:02:29;;;;;;;7.47;4.93;;;9.40;99.90;;;;;;4993838;28;20465;-74
2021/04/19 11:04:56;;;;;;;5.90;5.30;;;;;;;;;;4992874;28;20399;-74
2021/04/19 11:07:23;;;;;;;7.40;5.85;;;9.30;99.90;;;;;;4993286;28;20401;-74
2021/04/19 11:10:27;;;;;;;6.27;5.40;;;9.70;99.90;;;;;;4974089;28;20814;-74
2021/04/19 11:13:02;;;;;;;8.40;5.20;;;9.80;99.90;;;;;;4988001;28;20488;-72
2021/04/19 11:15:40;;;;;;;6.80;5.85;;;9.40;99.90;;;;;;4993293;28;20379;-72
2021/04/19 11:18:23;;;;;;;7.60;6.07;;;9.40;99.90;;;;;;4993049;28;20434;-73
2021/04/19 11:20:54;;;;;;;6.50;5.57;;;9.70;99.90;;;;;;4992400;28;20802;-72
2021/04/19 11:23:21;;;;;;;7.90;5.50;;;;;;;;;;4975712;28;20794;-72
2021/04/19 11:25:48;;;;;;;7.50;5.40;;;;;;;;;;4992179;28;20465;-72
2021/04/19 11:28:19;;;;;;;6.70;6.00;;;9.90;99.90;;;;;;4992960;28;20520;-72
2021/04/19 11:30:50;;;;;;;7.73;5.90;;;9.50;99.90;;;;;;4991295;28;20451;-73
2021/04/19 11:33:16;;;;;;;7.38;5.75;;;;;;;;;;4992549;28;20387;-73
2021/04/19 11:35:43;;;;;;;9.25;5.75;;;;;;;;;;4974646;28;20413;-73
2021/04/19 11:38:13;;;;;;;7.15;6.13;;;9.60;99.90;;;;;;4992580;28;20445;-73
2021/04/19 11:40:42;;;;;;;9.65;6.63;;;8.60;99.90;;;;;;4991558;28;20402;-74
2021/04/19 11:43:18;;;;;;;8.57;6.83;;;;;;;;;;4992451;28;20994;-74
2021/04/19 11:45:45;;;;;;;6.88;6.18;;;;;;;;;;5006359;28;20744;-74
2021/04/19 11:48:12;;;;;;;8.40;6.80;;;;;;;;;;4991965;28;20406;-74
2021/04/19 11:50:40;;;;;;;8.17;6.23;;;10.20;99.90;;;;;;4990704;28;20390;-74
2021/04/19 11:53:06;;;;;;;8.10;7.05;;;;;;;;;;4991842;28;20382;-74
2021/04/19 11:55:33;;;;;;;8.07;6.68;;;;;;;;;;4991694;28;20909;-76
2021/04/19 11:57:59;;;;;;;9.75;7.75;;;;;;;;;;4990717;28;20390;-74
2021/04/19 12:00:26;;;;;;;8.17;7.10;;;;;;;;;;4974269;28;20843;-73
2021/04/19 12:02:52;;;;;;;10.00;7.23;;;10.20;99.90;;;;;;4978390;28;20413;-74
2021/04/19 12:05:19;;;;;;;8.87;7.50;;;;;;;;;;5000516;28;20734;-75
2021/04/19 12:07:44;;;;;;;10.00;7.90;;;10.00;99.90;;;;;;4981941;28;20861;-74
2021/04/19 12:10:10;;;;;;;9.80;7.03;;;10.20;99.90;;;;;;5001940;28;20405;-73
2021/04/19 12:12:36;;;;;;;10.10;6.50;;;;;;;;;;4999679;28;20397;-77
2021/04/19 12:15:03;;;;;;;8.80;6.80;;;;;;;;;;5000962;28;20901;-74
2021/04/19 12:17:29;;;;;;;9.98;6.82;;;;;;;;;;4999281;28;20402;-73
2021/04/19 12:19:54;;;;;;;11.70;7.00;;;10.50;99.90;;;;;;4999289;28;20405;-74
2021/04/19 12:22:20;;;;;;;9.35;7.28;;;;;;;;;;5000869;28;20963;-74
2021/04/19 12:24:47;;;;;;;8.57;7.00;;;;;;;;;;4997568;28;20871;-73
2021/04/19 12:27:14;;;;;;;9.02;7.70;;;;;;;;;;4974190;28;20770;-73
2021/04/19 12:29:40;;;;;;;9.02;7.38;;;;;;;;;;4990683;28;20929;-75
2021/04/19 12:32:06;;;;;;;8.67;7.40;;;;;;;;;;4991816;28;20386;-73
2021/04/19 12:34:32;;;;;;;13.05;7.28;;;11.40;99.90;;;;;;4974270;28;20585;-73
2021/04/19 12:36:57;;;;;;;9.68;6.72;;;11.50;99.90;;;;;;4973207;28;20402;-74
2021/04/19 12:39:23;;;;;;;8.80;7.00;;;;;;;;;;4991513;28;20413;-74
2021/04/19 12:41:50;;;;;;;7.80;6.57;;;;;;;;;;4990836;28;20406;-73
2021/04/19 12:44:16;;;;;;;10.20;7.30;;;11.00;99.90;;;;;;4991387;28;20894;-73
2021/04/19 12:46:43;;;;;;;8.75;6.72;;;11.40;99.90;;;;;;4990404;28;20397;-73
2021/04/19 12:49:09;;;;;;;10.88;6.90;;;;;;;;;;4990817;28;20406;-73
2021/04/19 12:51:35;;;;;;;11.55;7.85;;;;;;;;;;4973528;28;20521;-75
2021/04/19 12:54:01;;;;;;;7.95;6.70;;;;;;;;;;4990905;28;20379;-73
2021/04/19 12:56:27;;;;;;;10.70;6.55;;;11.50;99.90;;;;;;4991071;28;20379;-74
2021/04/19 12:58:54;;;;;;;9.37;6.40;;;11.00;99.90;;;;;;4989940;28;20398;-73
2021/04/19 13:01:19;;;;;;;7.53;5.97;;;11.90;99.90;;;;;;4990648;28;20422;-74
2021/04/19 13:03:45;;;;;;;9.23;5.68;;;;;;;;;;4990129;28;20732;-74
2021/04/19 13:06:11;;;;;;;7.80;5.90;;;11.80;99.90;;;;;;4987800;28;20461;-73
2021/04/19 13:08:37;;;;;;;6.90;5.50;;;;;;;;;;4989648;28;20469;-77
2021/04/19 13:11:03;;;;;;;6.00;5.28;;;;;;;;;;4990271;28;20398;-75
2021/04/19 13:13:29;;;;;;;8.60;5.47;;;;;;;;;;4991138;28;20445;-72
2021/04/19 13:15:55;;;;;;;7.70;4.78;;;11.30;99.90;;;;;;4989907;28;20389;-74
2021/04/19 13:18:21;;;;;;;8.23;5.72;;;11.50;99.90;;;;;;4990907;28;20385;-73
2021/04/19 13:20:47;;;;;;;11.20;6.70;;;;;;;;;;4989976;28;20872;-74
2021/04/19 13:23:13;;;;;;;9.03;5.97;;;;;;;;;;4991097;28;20378;-73
2021/04/19 13:25:39;;;;;;;9.07;6.28;;;;;;;;;;4990445;28;20385;-76
2021/04/19 13:28:05;;;;;;;7.15;6.10;;;11.80;99.90;;;;;;5005991;28;20383;-73
2021/04/19 13:30:32;;;;;;;9.60;6.25;;;;;;;;;;4991038;28;20486;-73
2021/04/19 13:32:58;;;;;;;10.07;6.35;;;;;;;;;;4990038;28;20859;-73
2021/04/19 13:35:24;;;;;;;6.97;6.18;;;11.90;99.90;;;;;;4990817;28;20379;-73
2021/04/19 13:37:50;;;;;;;8.63;6.10;;;;;;;;;;4990525;28;20437;-73
2021/04/19 13:40:17;;;;;;;8.73;5.90;;;;;;;;;;4991045;28;20390;-73
2021/04/19 13:42:44;;;;;;;6.88;5.50;;;;;;;;;;4990184;28;20480;-74
2021/04/19 13:45:17;;;;;;;8.95;6.07;;;13.10;99.90;;;;;;4990752;28;20441;-73
2021/04/19 13:47:43;;;;;;;7.32;5.53;;;12.50;99.90;;;;;;4990189;28;20390;-74
2021/04/19 13:50:10;;;;;;;7.80;5.63;;;;;;;;;;4990939;28;20426;-73
2021/04/19 13:52:36;;;;;;;6.40;5.68;;;12.00;99.90;;;;;;4990726;28;20744;-73
2021/04/19 13:55:02;;;;;;;6.93;5.60;;;;;;;;;;4990113;28;20458;-73
2021/04/19 13:57:28;;;;;;;7.65;5.80;;;;;;;;;;5005959;28;20401;-73
2021/04/19 13:59:54;;;;;;;6.50;5.80;;;12.20;99.90;;;;;;4990129;28;20983;-73
2021/04/19 14:02:19;;;;;;;7.83;5.70;;;11.30;99.90;;;;;;4990639;28;20425;-73
2021/04/19 14:04:46;;;;;;;5.60;5.00;;;;;;;;;;4989815;28;20382;-73
2021/04/19 14:07:12;;;;;;;8.35;6.20;;;;;;;;;;4990826;28;20379;-73
2021/04/19 14:09:38;;;;;;;8.63;5.30;;;;;;;;;;4990384;28;20397;-73
2021/04/19 14:12:04;;;;;;;5.97;5.15;;;11.80;99.90;;;;;;4990056;28;20406;-72